Terminal Aerodrome Forecast
Issued by NWS Indianapolis, IN

Home | Current Version | Previous Version | Text Only | Print | Product List | Glossary On
Versions: 1 2 3 4 5 6 7 8 9 10 11 12 13 14 15 16 17 18 19 20 21 22 23 24 25 26 27
849
FTUS43 KIND 062025 AAB
TAFIND
TAF AMD
KIND 062025Z 0620/0724 30010KT P6SM OVC014
     FM070200 30008KT P6SM SCT080
     FM070700 29006KT P6SM SCT250
     FM072000 25006KT P6SM BKN110=

USA.gov is the U.S. government's official web portal to all federal, state and local government web resources and services.